TimeCST,TemperatureF,Dew PointF,Humidity,Sea Level PressureIn,VisibilityMPH,Wind Direction,Wind SpeedMPH,Gust SpeedMPH,PrecipitationIn,Events,Conditions,WindDirDegrees,DateUTC
12:15 AM,32.0,26.6,80,30.19,10.0,South,10.4,-,N/A,,Clear,180,2012-12-13 06:15:00
12:35 AM,32.0,26.6,80,30.19,10.0,South,9.2,-,N/A,,Clear,180,2012-12-13 06:35:00
12:55 AM,32.0,26.6,80,30.19,10.0,South,8.1,-,N/A,,Clear,190,2012-12-13 06:55:00
1:15 AM,32.0,26.6,80,30.20,10.0,South,9.2,-,N/A,,Clear,180,2012-12-13 07:15:00
1:35 AM,32.0,26.6,80,30.20,10.0,South,8.1,-,N/A,,Clear,190,2012-12-13 07:35:00
1:55 AM,32.0,26.6,80,30.21,10.0,South,8.1,-,N/A,,Clear,190,2012-12-13 07:55:00
2:15 AM,32.0,26.6,80,30.21,10.0,South,5.8,-,N/A,,Clear,180,2012-12-13 08:15:00
2:35 AM,32.0,24.8,75,30.21,10.0,South,6.9,-,N/A,,Clear,190,2012-12-13 08:35:00
2:55 AM,32.0,24.8,75,30.20,10.0,South,8.1,-,N/A,,Clear,190,2012-12-13 08:55:00
3:15 AM,32.0,24.8,75,30.20,10.0,South,9.2,16.1,N/A,,Clear,180,2012-12-13 09:15:00
3:35 AM,32.0,24.8,75,30.19,10.0,South,8.1,16.1,N/A,,Clear,190,2012-12-13 09:35:00
3:55 AM,32.0,24.8,75,30.19,10.0,South,8.1,16.1,N/A,,Clear,190,2012-12-13 09:55:00
4:15 AM,32.0,23.0,69,30.18,10.0,SSW,9.2,-,N/A,,Clear,200,2012-12-13 10:15:00
4:35 AM,32.0,23.0,69,30.18,10.0,South,9.2,16.1,N/A,,Clear,190,2012-12-13 10:35:00
6:45 AM,30.2,23.0,75,30.17,10.0,South,11.5,-,N/A,,Clear,190,2012-12-13 12:45:00
7:45 AM,30.2,23.0,75,30.16,10.0,South,11.5,-,N/A,,Clear,170,2012-12-13 13:45:00
8:45 AM,33.8,23.0,65,30.15,10.0,South,11.5,-,N/A,,Clear,170,2012-12-13 14:45:00
9:45 AM,37.4,23.0,56,30.15,10.0,South,11.5,-,N/A,,Clear,180,2012-12-13 15:45:00
10:45 AM,42.8,21.2,42,30.11,10.0,SSW,15.0,-,N/A,,Clear,200,2012-12-13 16:45:00
11:45 AM,42.8,23.0,46,30.11,10.0,SW,15.0,-,N/A,,Clear,220,2012-12-13 17:45:00
12:45 PM,44.6,24.8,46,30.09,10.0,SSW,15.0,-,N/A,,Clear,210,2012-12-13 18:45:00
1:45 PM,42.8,24.8,49,30.06,10.0,South,11.5,23.0,N/A,,Scattered Clouds,190,2012-12-13 19:45:00
2:45 PM,44.6,24.8,46,30.05,10.0,SSW,11.5,23.0,N/A,,Scattered Clouds,200,2012-12-13 20:45:00
3:45 PM,42.8,26.6,53,30.05,10.0,SSW,8.1,-,N/A,,Scattered Clouds,210,2012-12-13 21:45:00
7:45 PM,33.8,26.6,75,30.11,10.0,SSW,5.8,-,N/A,,Clear,210,2012-12-14 01:45:00
8:15 PM,33.8,26.6,75,30.10,10.0,SSW,4.6,-,N/A,,Clear,210,2012-12-14 02:15:00
8:35 PM,33.8,26.6,75,30.10,10.0,SSW,6.9,-,N/A,,Clear,210,2012-12-14 02:35:00
8:45 PM,33.8,26.6,75,30.10,10.0,SSW,5.8,-,N/A,,Clear,210,2012-12-14 02:45:00
8:55 PM,32.0,26.6,80,30.10,10.0,SSW,5.8,-,N/A,,Clear,210,2012-12-14 02:55:00
9:15 PM,32.0,26.6,80,30.11,10.0,SSW,6.9,-,N/A,,Clear,210,2012-12-14 03:15:00
9:35 PM,32.0,26.6,80,30.11,10.0,SW,4.6,-,N/A,,Clear,220,2012-12-14 03:35:00
9:55 PM,32.0,26.6,80,30.11,10.0,SW,4.6,-,N/A,,Clear,220,2012-12-14 03:55:00
10:15 PM,32.0,26.6,80,30.12,10.0,SW,5.8,-,N/A,,Clear,220,2012-12-14 04:15:00
10:35 PM,32.0,26.6,80,30.12,10.0,SSW,3.5,-,N/A,,Clear,210,2012-12-14 04:35:00
10:55 PM,32.0,26.6,80,30.12,10.0,Calm,Calm,-,N/A,,Clear,0,2012-12-14 04:55:00
11:15 PM,30.2,26.6,86,30.13,10.0,Calm,Calm,-,N/A,,Clear,0,2012-12-14 05:15:00
11:35 PM,30.2,26.6,86,30.13,10.0,Calm,Calm,-,N/A,,Clear,0,2012-12-14 05:35:00
11:55 PM,30.2,26.6,86,30.13,10.0,SW,4.6,-,N/A,,Clear,230,2012-12-14 05:55:00